Time;durP1;ratioP1;P1;durP2;ratioP2;P2;SDS_P1;SDS_P2;PMS_P1;PMS_P2;Temp;Humidity;BMP_temperature;BMP_pressure;BME280_temperature;BME280_humidity;BME280_pressure;Samples;Min_cycle;Max_cycle;Signal;HPM_P1;HPM_P2
2022/02/08 00:41:00;;;;;;;9.60;1.93;;;;;;;;;;6347007;22;20209;-90
2022/02/08 00:44:12;;;;;;;17.17;2.33;;;;;;;;;;6358472;22;20168;-94
2022/02/08 00:47:25;;;;;;;8.27;2.10;;;;;;;;;;6357174;22;20498;-93
2022/02/08 00:50:31;;;;;;;9.63;2.10;;;;;;;;;;6339294;22;20156;-92
2022/02/08 00:53:36;;;;;;;6.63;1.97;;;;;;;;;;6357487;22;20164;-92
2022/02/08 00:56:44;;;;;;;14.57;2.60;;;;;;;;;;6355952;22;20195;-91
2022/02/08 00:59:50;;;;;;;9.30;2.00;;;;;;;;;;6353757;22;20160;-91
2022/02/08 01:02:58;;;;;;;10.97;2.30;;;;;;;;;;6355284;22;20168;-91
2022/02/08 01:06:06;;;;;;;13.87;2.67;;;;;;;;;;6354277;22;20210;-90
2022/02/08 01:09:15;;;;;;;9.73;2.00;;;;;;;;;;6356446;22;20201;-90
2022/02/08 01:12:23;;;;;;;13.17;2.30;;;;;;;;;;6354661;22;20199;-91
2022/02/08 01:15:28;;;;;;;12.60;2.30;;;;;;;;;;6354220;22;20495;-91
2022/02/08 01:18:38;;;;;;;13.97;2.70;;;;;;;;;;6337249;22;20241;-92
2022/02/08 01:21:44;;;;;;;17.47;3.40;;;;;;;;;;6355787;22;20169;-91
2022/02/08 01:24:51;;;;;;;13.33;2.33;;;;;;;;;;6356104;22;20176;-91
2022/02/08 01:28:07;;;;;;;13.83;2.53;;;;;;;;;;6356096;22;20152;-92
2022/02/08 01:31:15;;;;;;;10.10;2.10;;;;;;;;;;6359233;22;20165;-90
2022/02/08 01:34:33;;;;;;;7.50;2.30;;;;;;;;;;6358731;22;20173;-91
2022/02/08 01:37:48;;;;;;;12.03;2.87;;;;;;;;;;6336749;22;20177;-92
2022/02/08 01:41:11;;;;;;;10.73;2.47;;;;;;;;;;6356693;22;20643;-91
2022/02/08 01:44:26;;;;;;;5.83;2.00;;;;;;;;;;6355387;22;20173;-92
2022/02/08 01:47:43;;;;;;;15.97;2.60;;;;;;;;;;6353807;22;20189;-92
2022/02/08 01:50:51;;;;;;;13.00;2.27;;;;;;;;;;6355614;22;20168;-91
2022/02/08 01:54:07;;;;;;;9.33;2.70;;;;;;;;;;6355874;22;20176;-92
2022/02/08 01:57:14;;;;;;;11.43;2.57;;;;;;;;;;6336066;22;20614;-89
2022/02/08 02:00:25;;;;;;;7.70;2.40;;;;;;;;;;6358781;22;20602;-92
2022/02/08 02:03:31;;;;;;;9.50;2.10;;;;;;;;;;6358533;22;20168;-91
2022/02/08 02:06:36;;;;;;;13.80;2.73;;;;;;;;;;6355026;22;20168;-92
2022/02/08 02:09:45;;;;;;;12.73;2.63;;;;;;;;;;6357226;22;20169;-92
2022/02/08 02:18:50;;;;;;;15.50;2.80;;;;;;;;;;6349929;22;20239;-92
2022/02/08 02:21:59;;;;;;;7.70;2.13;;;;;;;;;;6369000;22;20160;-89
2022/02/08 02:25:07;;;;;;;11.80;2.53;;;;;;;;;;6365318;22;20263;-92
2022/02/08 02:28:12;;;;;;;13.53;2.50;;;;;;;;;;6368341;22;20170;-91
2022/02/08 02:31:20;;;;;;;11.03;2.23;;;;;;;;;;6369293;22;20163;-90
2022/02/08 02:34:25;;;;;;;13.57;2.50;;;;;;;;;;6367270;22;20164;-93
2022/02/08 02:37:32;;;;;;;14.40;2.97;;;;;;;;;;6368287;22;20155;-90
2022/02/08 02:40:41;;;;;;;12.20;2.60;;;;;;;;;;6368840;22;20171;-90
2022/02/08 02:43:47;;;;;;;10.47;2.57;;;;;;;;;;6369123;22;20198;-91
2022/02/08 02:46:55;;;;;;;14.00;3.33;;;;;;;;;;6370641;22;20148;-91
2022/02/08 02:50:01;;;;;;;7.67;2.33;;;;;;;;;;6369864;22;20182;-91
2022/02/08 02:53:07;;;;;;;9.90;2.67;;;;;;;;;;6371041;22;20192;-91
2022/02/08 02:56:15;;;;;;;5.43;1.80;;;;;;;;;;6369811;22;20178;-92
2022/02/08 02:59:24;;;;;;;14.50;2.13;;;;;;;;;;6386318;22;20151;-92
2022/02/08 03:02:38;;;;;;;11.40;2.27;;;;;;;;;;6390463;22;20172;-91
2022/02/08 03:06:05;;;;;;;13.13;3.10;;;;;;;;;;6367448;22;20218;-92
2022/02/08 03:19:25;;;;;;;14.77;2.50;;;;;;;;;;6370072;22;20225;-93
2022/02/08 03:22:33;;;;;;;14.37;2.83;;;;;;;;;;6369325;22;20243;-90
2022/02/08 03:25:42;;;;;;;9.37;2.70;;;;;;;;;;6367967;22;20183;-92
2022/02/08 03:28:57;;;;;;;10.43;2.50;;;;;;;;;;6369350;22;20166;-91
2022/02/08 03:32:08;;;;;;;9.73;2.00;;;;;;;;;;6370575;22;20233;-93
2022/02/08 03:35:15;;;;;;;12.73;2.43;;;;;;;;;;6367545;22;20164;-94
2022/02/08 03:38:29;;;;;;;10.57;2.03;;;;;;;;;;6367070;22;20152;-91
2022/02/08 03:41:40;;;;;;;10.93;2.07;;;;;;;;;;6368478;22;20171;-91
2022/02/08 03:44:52;;;;;;;12.83;2.33;;;;;;;;;;6367064;22;20198;-92
2022/02/08 03:47:59;;;;;;;9.70;2.23;;;;;;;;;;6366219;22;20482;-93
2022/02/08 03:51:13;;;;;;;8.70;1.80;;;;;;;;;;6367619;22;20214;-92
2022/02/08 03:54:35;;;;;;;9.83;2.60;;;;;;;;;;6365767;22;20172;-92
2022/02/08 03:57:40;;;;;;;14.27;2.67;;;;;;;;;;6367789;22;20164;-93
2022/02/08 04:01:22;;;;;;;12.73;3.10;;;;;;;;;;6371095;22;20202;-91
2022/02/08 04:04:35;;;;;;;14.53;2.40;;;;;;;;;;6391736;22;20167;-93
2022/02/08 04:07:45;;;;;;;10.83;2.90;;;;;;;;;;6389278;22;20167;-92
2022/02/08 04:10:55;;;;;;;11.13;2.50;;;;;;;;;;6391219;22;20206;-90
2022/02/08 04:14:17;;;;;;;12.63;2.43;;;;;;;;;;6389912;22;20245;-92
2022/02/08 04:17:38;;;;;;;13.87;2.60;;;;;;;;;;6389530;22;20156;-92
2022/02/08 04:34:45;;;;;;;8.50;1.83;;;;;;;;;;6293065;22;20215;-93
2022/02/08 04:45:09;;;;;;;6.87;2.00;;;;;;;;;;6390941;22;20159;-91
2022/02/08 04:48:26;;;;;;;8.97;2.00;;;;;;;;;;6390303;22;20172;-92
2022/02/08 04:51:39;;;;;;;13.07;2.00;;;;;;;;;;6391701;22;20251;-91
2022/02/08 04:54:51;;;;;;;10.73;2.07;;;;;;;;;;6391435;22;20216;-93
2022/02/08 04:58:12;;;;;;;4.90;1.50;;;;;;;;;;6389848;22;20167;-93
2022/02/08 05:01:26;;;;;;;12.37;2.10;;;;;;;;;;6392629;22;20246;-93
2022/02/08 05:42:09;;;;;;;5.93;1.70;;;;;;;;;;6359665;22;20171;-92
2022/02/08 05:45:26;;;;;;;7.37;1.63;;;;;;;;;;6392066;22;20172;-91
2022/02/08 05:48:34;;;;;;;9.00;1.70;;;;;;;;;;6391763;22;20222;-92
2022/02/08 05:52:09;;;;;;;11.63;1.83;;;;;;;;;;6393725;22;20176;-93
2022/02/08 05:55:16;;;;;;;12.50;2.13;;;;;;;;;;6394311;22;20156;-91
2022/02/08 05:58:23;;;;;;;9.23;1.83;;;;;;;;;;6391936;22;20167;-91
2022/02/08 06:01:31;;;;;;;9.07;1.70;;;;;;;;;;6391947;22;20159;-92
2022/02/08 06:05:06;;;;;;;6.63;1.93;;;;;;;;;;6372382;22;20177;-93
2022/02/08 06:08:11;;;;;;;11.13;2.07;;;;;;;;;;6372259;22;20167;-92
2022/02/08 06:11:17;;;;;;;7.30;1.90;;;;;;;;;;6372574;22;20243;-92
2022/02/08 06:14:41;;;;;;;7.67;2.10;;;;;;;;;;6374598;22;20183;-91
2022/02/08 06:21:26;;;;;;;7.90;2.20;;;;;;;;;;6371625;22;20163;-91
2022/02/08 06:24:32;;;;;;;9.77;2.30;;;;;;;;;;6370527;22;20168;-92
2022/02/08 06:27:39;;;;;;;9.33;2.23;;;;;;;;;;6374181;22;20214;-91
2022/02/08 06:30:47;;;;;;;9.37;1.90;;;;;;;;;;6373337;22;20221;-92
2022/02/08 06:33:57;;;;;;;9.67;2.13;;;;;;;;;;6372832;22;20183;-92
2022/02/08 06:37:20;;;;;;;11.87;2.40;;;;;;;;;;6373408;22;20164;-90
2022/02/08 06:44:04;;;;;;;7.67;2.07;;;;;;;;;;6371944;22;20175;-91
2022/02/08 06:47:10;;;;;;;6.80;1.80;;;;;;;;;;6371818;22;20147;-92
2022/02/08 06:50:15;;;;;;;9.30;2.30;;;;;;;;;;6372745;22;20167;-92
2022/02/08 06:53:21;;;;;;;14.60;2.23;;;;;;;;;;6373442;22;20198;-92
2022/02/08 06:56:29;;;;;;;8.07;1.43;;;;;;;;;;6374952;22;20163;-92
2022/02/08 06:59:38;;;;;;;9.27;2.07;;;;;;;;;;6372508;22;20163;-89
2022/02/08 07:02:49;;;;;;;7.60;1.90;;;;;;;;;;6391401;22;20227;-91
2022/02/08 07:05:55;;;;;;;10.27;1.97;;;;;;;;;;6373757;22;20156;-91
2022/02/08 07:09:03;;;;;;;9.27;2.57;;;;;;;;;;6374052;22;20171;-92
2022/02/08 07:15:33;;;;;;;7.23;2.27;;;;;;;;;;6370638;22;20183;-92
2022/02/08 07:18:43;;;;;;;11.93;2.27;;;;;;;;;;6374032;22;20183;-91
2022/02/08 07:25:09;;;;;;;11.73;2.10;;;;;;;;;;6373443;22;20224;-90
2022/02/08 07:28:15;;;;;;;10.93;2.07;;;;;;;;;;6373525;22;20167;-90
2022/02/08 07:31:23;;;;;;;12.20;2.20;;;;;;;;;;6373259;22;20167;-92
2022/02/08 07:34:38;;;;;;;10.67;2.40;;;;;;;;;;6376469;22;20229;-91
2022/02/08 07:37:50;;;;;;;11.50;2.37;;;;;;;;;;6357151;22;20148;-93
2022/02/08 07:44:18;;;;;;;10.33;2.20;;;;;;;;;;6374509;22;20251;-92
2022/02/08 07:47:34;;;;;;;11.33;2.90;;;;;;;;;;6373508;22;20164;-92
2022/02/08 07:57:20;;;;;;;12.07;2.37;;;;;;;;;;6373979;22;20190;-90
2022/02/08 08:03:52;;;;;;;7.57;1.70;;;;;;;;;;6394200;22;20190;-90
2022/02/08 08:07:02;;;;;;;15.23;2.40;;;;;;;;;;6372895;22;20179;-91
2022/02/08 08:10:17;;;;;;;7.47;2.07;;;;;;;;;;6371890;22;20168;-92
2022/02/08 08:16:50;;;;;;;12.13;2.70;;;;;;;;;;6377421;22;20187;-91
2022/02/08 08:23:20;;;;;;;6.73;1.67;;;;;;;;;;6374022;22;20175;-91
2022/02/08 08:26:30;;;;;;;4.97;2.03;;;;;;;;;;6374630;22;20187;-91
2022/02/08 08:29:36;;;;;;;9.60;2.03;;;;;;;;;;6373720;22;20163;-92
2022/02/08 08:32:42;;;;;;;6.10;1.90;;;;;;;;;;6372842;22;20201;-92
2022/02/08 08:42:39;;;;;;;10.67;1.80;;;;;;;;;;6392271;22;20508;-92
2022/02/08 23:40:27;;;;;;;17.97;6.20;;;;;;;;;;6341021;22;20164;-91
2022/02/08 23:43:36;;;;;;;20.93;6.10;;;;;;;;;;6342844;22;20180;-92
2022/02/08 23:50:24;;;;;;;15.27;5.37;;;;;;;;;;6363986;22;20168;-91
